Aviation Digital Data Service (ADDS)

Output produced by METARs form (1149 UTC 30 September 2014)
found at http://aviationweather.gov/adds/metars/
 
KLCH 301053Z AUTO 00000KT 5SM BR CLR 22/21 A2987 RMK AO2 SLP121 T02220211